Rover, Arkansas
Current Conditions -  °F | °C
As of 3:53 PM on Thursday 27 Nov 2014 (Local Time) from KRUE Reporting Station
Clear Clear  
Wind Chill: 49°   Ceiling: Unl
Heat Index: 49°   Visibility: 10mi
Dew Point: 26°   Wind: 0mph
Humidity: 41%   Direction: NA
Pressure: 30.45"   Gusts: NA
Location:  34.95°N, 93.41°W
Report Text: KRUE 272153Z AUTO 00000KT 10SM CLR 09/M03 A3045 RMK AO2 SLP308 T00941033
Loading
Personal Weather Stations






























Interactive Weather Map New forecast layout! Learn more

10-Day Weather Forecast

Advertisements
Track Severe Weather on mobile